sensor_id;sensor_type;location;lat;lon;timestamp;temperature;humidity
25248;DHT22;13191;47.472;11.214;2024-03-08T00:00:09;5.20;99.90
25248;DHT22;13191;47.472;11.214;2024-03-08T00:02:41;5.20;99.90
25248;DHT22;13191;47.472;11.214;2024-03-08T00:05:08;5.10;99.90
25248;DHT22;13191;47.472;11.214;2024-03-08T00:07:40;5.10;99.90
25248;DHT22;13191;47.472;11.214;2024-03-08T00:10:07;5.10;99.90
25248;DHT22;13191;47.472;11.214;2024-03-08T00:12:36;5.10;99.90
25248;DHT22;13191;47.472;11.214;2024-03-08T00:15:02;5.00;99.90
25248;DHT22;13191;47.472;11.214;2024-03-08T00:17:28;5.00;99.90
25248;DHT22;13191;47.472;11.214;2024-03-08T00:19:54;5.00;99.90
25248;DHT22;13191;47.472;11.214;2024-03-08T00:22:19;5.00;99.90
25248;DHT22;13191;47.472;11.214;2024-03-08T00:24:45;4.90;99.90
25248;DHT22;13191;47.472;11.214;2024-03-08T00:27:11;4.90;99.90
25248;DHT22;13191;47.472;11.214;2024-03-08T00:29:37;4.80;99.90
25248;DHT22;13191;47.472;11.214;2024-03-08T00:32:04;4.80;99.90
25248;DHT22;13191;47.472;11.214;2024-03-08T00:34:30;4.80;99.90
25248;DHT22;13191;47.472;11.214;2024-03-08T00:36:55;4.80;99.90
25248;DHT22;13191;47.472;11.214;2024-03-08T00:39:21;4.70;99.90
25248;DHT22;13191;47.472;11.214;2024-03-08T00:41:47;4.70;99.90
25248;DHT22;13191;47.472;11.214;2024-03-08T00:44:13;4.70;99.90
25248;DHT22;13191;47.472;11.214;2024-03-08T00:46:38;4.60;99.90
25248;DHT22;13191;47.472;11.214;2024-03-08T00:49:04;4.60;99.90
25248;DHT22;13191;47.472;11.214;2024-03-08T00:51:29;4.50;99.90
25248;DHT22;13191;47.472;11.214;2024-03-08T00:53:55;4.40;99.90
25248;DHT22;13191;47.472;11.214;2024-03-08T00:56:20;4.50;99.90
25248;DHT22;13191;47.472;11.214;2024-03-08T00:58:46;4.40;99.90
25248;DHT22;13191;47.472;11.214;2024-03-08T01:01:13;4.30;99.90
25248;DHT22;13191;47.472;11.214;2024-03-08T01:03:42;4.30;99.90
25248;DHT22;13191;47.472;11.214;2024-03-08T01:06:08;4.30;99.90
25248;DHT22;13191;47.472;11.214;2024-03-08T01:08:34;4.30;99.90
25248;DHT22;13191;47.472;11.214;2024-03-08T01:10:59;4.30;99.90
25248;DHT22;13191;47.472;11.214;2024-03-08T01:13:25;4.30;99.90
25248;DHT22;13191;47.472;11.214;2024-03-08T01:15:51;4.30;99.90
25248;DHT22;13191;47.472;11.214;2024-03-08T01:18:16;4.30;99.90
25248;DHT22;13191;47.472;11.214;2024-03-08T01:20:42;4.30;99.90
25248;DHT22;13191;47.472;11.214;2024-03-08T01:23:07;4.10;99.90
25248;DHT22;13191;47.472;11.214;2024-03-08T01:25:34;4.10;99.90
25248;DHT22;13191;47.472;11.214;2024-03-08T01:27:59;4.00;99.90
25248;DHT22;13191;47.472;11.214;2024-03-08T01:30:25;4.10;99.90
25248;DHT22;13191;47.472;11.214;2024-03-08T01:32:50;4.10;99.90
25248;DHT22;13191;47.472;11.214;2024-03-08T01:35:16;4.10;99.90
25248;DHT22;13191;47.472;11.214;2024-03-08T01:37:41;4.00;99.90
25248;DHT22;13191;47.472;11.214;2024-03-08T01:40:07;4.00;99.90
25248;DHT22;13191;47.472;11.214;2024-03-08T01:42:34;4.00;99.90
25248;DHT22;13191;47.472;11.214;2024-03-08T01:45:06;4.00;99.90
25248;DHT22;13191;47.472;11.214;2024-03-08T01:47:32;3.90;99.90
25248;DHT22;13191;47.472;11.214;2024-03-08T01:49:59;3.90;99.90
25248;DHT22;13191;47.472;11.214;2024-03-08T01:52:27;3.90;99.90
25248;DHT22;13191;47.472;11.214;2024-03-08T01:54:54;3.80;99.90
25248;DHT22;13191;47.472;11.214;2024-03-08T01:57:20;3.80;99.90
25248;DHT22;13191;47.472;11.214;2024-03-08T01:59:46;3.80;99.90
25248;DHT22;13191;47.472;11.214;2024-03-08T02:02:14;3.80;99.90
25248;DHT22;13191;47.472;11.214;2024-03-08T02:04:43;3.70;99.90
25248;DHT22;13191;47.472;11.214;2024-03-08T02:07:09;3.70;99.90
25248;DHT22;13191;47.472;11.214;2024-03-08T02:09:35;3.60;99.90
25248;DHT22;13191;47.472;11.214;2024-03-08T02:12:00;3.60;99.90
25248;DHT22;13191;47.472;11.214;2024-03-08T02:14:26;3.60;99.90
25248;DHT22;13191;47.472;11.214;2024-03-08T02:16:51;3.60;99.90
25248;DHT22;13191;47.472;11.214;2024-03-08T02:19:17;3.60;99.90
25248;DHT22;13191;47.472;11.214;2024-03-08T02:21:43;3.50;99.90
25248;DHT22;13191;47.472;11.214;2024-03-08T02:24:09;3.50;99.90
25248;DHT22;13191;47.472;11.214;2024-03-08T02:26:34;3.50;99.90
25248;DHT22;13191;47.472;11.214;2024-03-08T02:29:00;3.40;99.90
25248;DHT22;13191;47.472;11.214;2024-03-08T02:31:26;3.40;99.90
25248;DHT22;13191;47.472;11.214;2024-03-08T02:33:51;3.40;99.90
25248;DHT22;13191;47.472;11.214;2024-03-08T02:36:17;3.40;99.90
25248;DHT22;13191;47.472;11.214;2024-03-08T02:38:42;3.40;99.90
25248;DHT22;13191;47.472;11.214;2024-03-08T02:41:08;3.40;99.90
25248;DHT22;13191;47.472;11.214;2024-03-08T02:43:34;3.30;99.90
25248;DHT22;13191;47.472;11.214;2024-03-08T02:45:59;3.40;99.90
25248;DHT22;13191;47.472;11.214;2024-03-08T02:48:25;3.30;99.90
25248;DHT22;13191;47.472;11.214;2024-03-08T02:50:51;3.30;99.90
25248;DHT22;13191;47.472;11.214;2024-03-08T02:53:17;3.30;99.90
25248;DHT22;13191;47.472;11.214;2024-03-08T02:55:44;3.30;99.90
25248;DHT22;13191;47.472;11.214;2024-03-08T02:58:10;3.20;99.90
25248;DHT22;13191;47.472;11.214;2024-03-08T03:00:36;3.30;99.90
25248;DHT22;13191;47.472;11.214;2024-03-08T03:03:02;3.20;99.90
25248;DHT22;13191;47.472;11.214;2024-03-08T03:05:29;3.20;99.90
25248;DHT22;13191;47.472;11.214;2024-03-08T03:07:58;3.00;99.90
25248;DHT22;13191;47.472;11.214;2024-03-08T03:10:24;3.00;99.90
25248;DHT22;13191;47.472;11.214;2024-03-08T03:12:50;3.00;99.90
25248;DHT22;13191;47.472;11.214;2024-03-08T03:15:15;3.00;99.90
25248;DHT22;13191;47.472;11.214;2024-03-08T03:17:48;3.00;99.90
25248;DHT22;13191;47.472;11.214;2024-03-08T03:20:17;3.00;99.90
25248;DHT22;13191;47.472;11.214;2024-03-08T03:22:49;2.90;99.90
25248;DHT22;13191;47.472;11.214;2024-03-08T03:25:18;2.90;99.90
25248;DHT22;13191;47.472;11.214;2024-03-08T03:27:49;2.90;99.90
25248;DHT22;13191;47.472;11.214;2024-03-08T03:30:15;2.90;99.90
25248;DHT22;13191;47.472;11.214;2024-03-08T03:32:50;2.90;99.90
25248;DHT22;13191;47.472;11.214;2024-03-08T03:35:17;2.90;99.90
25248;DHT22;13191;47.472;11.214;2024-03-08T03:37:43;2.90;99.90
25248;DHT22;13191;47.472;11.214;2024-03-08T03:40:11;2.90;99.90
25248;DHT22;13191;47.472;11.214;2024-03-08T03:42:37;2.90;99.90
25248;DHT22;13191;47.472;11.214;2024-03-08T03:45:05;2.80;99.90
25248;DHT22;13191;47.472;11.214;2024-03-08T03:47:31;2.90;99.90
25248;DHT22;13191;47.472;11.214;2024-03-08T03:49:56;2.90;99.90
25248;DHT22;13191;47.472;11.214;2024-03-08T03:52:27;2.90;99.90
25248;DHT22;13191;47.472;11.214;2024-03-08T03:54:52;2.90;99.90
25248;DHT22;13191;47.472;11.214;2024-03-08T03:57:18;2.80;99.90
25248;DHT22;13191;47.472;11.214;2024-03-08T03:59:44;2.90;99.90
25248;DHT22;13191;47.472;11.214;2024-03-08T04:02:09;2.80;99.90
25248;DHT22;13191;47.472;11.214;2024-03-08T04:04:35;2.70;99.90
25248;DHT22;13191;47.472;11.214;2024-03-08T04:07:00;2.80;99.90
25248;DHT22;13191;47.472;11.214;2024-03-08T04:09:27;2.80;99.90
25248;DHT22;13191;47.472;11.214;2024-03-08T04:11:53;2.40;99.90
25248;DHT22;13191;47.472;11.214;2024-03-08T04:14:20;2.60;99.90
25248;DHT22;13191;47.472;11.214;2024-03-08T04:16:46;2.60;99.90
25248;DHT22;13191;47.472;11.214;2024-03-08T04:19:13;2.70;99.90
25248;DHT22;13191;47.472;11.214;2024-03-08T04:21:39;2.70;99.90
25248;DHT22;13191;47.472;11.214;2024-03-08T04:24:05;2.60;99.90
25248;DHT22;13191;47.472;11.214;2024-03-08T04:26:31;2.60;99.90
25248;DHT22;13191;47.472;11.214;2024-03-08T04:28:56;2.60;99.90
25248;DHT22;13191;47.472;11.214;2024-03-08T04:31:22;2.60;99.90
25248;DHT22;13191;47.472;11.214;2024-03-08T04:33:47;2.60;99.90
25248;DHT22;13191;47.472;11.214;2024-03-08T04:36:13;2.60;99.90
25248;DHT22;13191;47.472;11.214;2024-03-08T04:38:40;2.60;99.90
25248;DHT22;13191;47.472;11.214;2024-03-08T04:41:06;2.50;99.90
25248;DHT22;13191;47.472;11.214;2024-03-08T04:43:32;2.50;99.90
25248;DHT22;13191;47.472;11.214;2024-03-08T04:45:58;2.50;99.90
25248;DHT22;13191;47.472;11.214;2024-03-08T04:48:23;2.50;99.90
25248;DHT22;13191;47.472;11.214;2024-03-08T04:50:52;2.50;99.90
25248;DHT22;13191;47.472;11.214;2024-03-08T04:53:19;2.50;99.90
25248;DHT22;13191;47.472;11.214;2024-03-08T04:55:44;2.50;99.90
25248;DHT22;13191;47.472;11.214;2024-03-08T04:58:10;2.40;99.90
25248;DHT22;13191;47.472;11.214;2024-03-08T05:00:35;2.40;99.90
25248;DHT22;13191;47.472;11.214;2024-03-08T05:03:01;2.50;99.90
25248;DHT22;13191;47.472;11.214;2024-03-08T05:05:26;2.50;99.90
25248;DHT22;13191;47.472;11.214;2024-03-08T05:07:54;2.40;99.90
25248;DHT22;13191;47.472;11.214;2024-03-08T05:10:20;2.40;99.90
25248;DHT22;13191;47.472;11.214;2024-03-08T05:12:45;2.50;99.90
25248;DHT22;13191;47.472;11.214;2024-03-08T05:15:11;2.40;99.90
25248;DHT22;13191;47.472;11.214;2024-03-08T05:17:36;2.40;99.90
25248;DHT22;13191;47.472;11.214;2024-03-08T05:20:02;2.40;99.90
25248;DHT22;13191;47.472;11.214;2024-03-08T05:22:29;2.40;99.90
25248;DHT22;13191;47.472;11.214;2024-03-08T05:24:54;2.30;99.90
25248;DHT22;13191;47.472;11.214;2024-03-08T05:27:20;2.30;99.90
25248;DHT22;13191;47.472;11.214;2024-03-08T05:29:46;2.40;99.90
25248;DHT22;13191;47.472;11.214;2024-03-08T05:32:12;2.30;99.90
25248;DHT22;13191;47.472;11.214;2024-03-08T05:34:37;2.40;99.90
25248;DHT22;13191;47.472;11.214;2024-03-08T05:37:03;2.40;99.90
25248;DHT22;13191;47.472;11.214;2024-03-08T05:39:29;2.30;99.90
25248;DHT22;13191;47.472;11.214;2024-03-08T05:41:55;2.30;99.90
25248;DHT22;13191;47.472;11.214;2024-03-08T05:44:21;2.30;99.90
25248;DHT22;13191;47.472;11.214;2024-03-08T05:46:47;2.30;99.90
25248;DHT22;13191;47.472;11.214;2024-03-08T05:49:12;2.30;99.90
25248;DHT22;13191;47.472;11.214;2024-03-08T05:51:39;2.30;99.90
25248;DHT22;13191;47.472;11.214;2024-03-08T05:54:06;2.30;99.90
25248;DHT22;13191;47.472;11.214;2024-03-08T05:56:32;2.30;99.90
25248;DHT22;13191;47.472;11.214;2024-03-08T05:58:58;2.20;99.90
25248;DHT22;13191;47.472;11.214;2024-03-08T06:01:27;2.30;99.90
25248;DHT22;13191;47.472;11.214;2024-03-08T06:03:53;2.30;99.90
25248;DHT22;13191;47.472;11.214;2024-03-08T06:06:22;2.30;99.90
25248;DHT22;13191;47.472;11.214;2024-03-08T06:08:48;2.20;99.90
25248;DHT22;13191;47.472;11.214;2024-03-08T06:11:17;2.20;99.90
25248;DHT22;13191;47.472;11.214;2024-03-08T06:13:44;2.20;99.90
25248;DHT22;13191;47.472;11.214;2024-03-08T06:16:10;2.10;99.90
25248;DHT22;13191;47.472;11.214;2024-03-08T06:18:35;2.10;99.90
25248;DHT22;13191;47.472;11.214;2024-03-08T06:21:05;2.10;99.90
25248;DHT22;13191;47.472;11.214;2024-03-08T06:23:37;2.10;99.90
25248;DHT22;13191;47.472;11.214;2024-03-08T06:26:04;2.10;99.90
25248;DHT22;13191;47.472;11.214;2024-03-08T06:28:30;2.00;99.90
25248;DHT22;13191;47.472;11.214;2024-03-08T06:30:55;2.00;99.90
25248;DHT22;13191;47.472;11.214;2024-03-08T06:33:21;2.00;99.90
25248;DHT22;13191;47.472;11.214;2024-03-08T06:35:47;2.00;99.90
25248;DHT22;13191;47.472;11.214;2024-03-08T06:38:12;2.00;99.90
25248;DHT22;13191;47.472;11.214;2024-03-08T06:40:38;2.00;99.90
25248;DHT22;13191;47.472;11.214;2024-03-08T06:43:05;2.00;99.90
25248;DHT22;13191;47.472;11.214;2024-03-08T06:45:32;1.90;99.90
25248;DHT22;13191;47.472;11.214;2024-03-08T06:47:57;1.90;99.90
25248;DHT22;13191;47.472;11.214;2024-03-08T06:50:23;1.80;99.90
25248;DHT22;13191;47.472;11.214;2024-03-08T06:52:48;1.80;99.90
25248;DHT22;13191;47.472;11.214;2024-03-08T06:55:21;1.80;99.90
25248;DHT22;13191;47.472;11.214;2024-03-08T06:57:47;1.80;99.90
25248;DHT22;13191;47.472;11.214;2024-03-08T07:00:12;1.70;99.90
25248;DHT22;13191;47.472;11.214;2024-03-08T07:02:43;1.70;99.90
25248;DHT22;13191;47.472;11.214;2024-03-08T07:05:11;1.60;99.90
25248;DHT22;13191;47.472;11.214;2024-03-08T07:07:37;1.50;99.90
25248;DHT22;13191;47.472;11.214;2024-03-08T07:10:03;1.50;99.90
25248;DHT22;13191;47.472;11.214;2024-03-08T07:12:30;1.40;99.90
25248;DHT22;13191;47.472;11.214;2024-03-08T07:14:55;1.50;99.90
25248;DHT22;13191;47.472;11.214;2024-03-08T07:17:21;1.60;99.90
25248;DHT22;13191;47.472;11.214;2024-03-08T07:19:46;1.60;99.90
25248;DHT22;13191;47.472;11.214;2024-03-08T07:22:12;1.70;99.90
25248;DHT22;13191;47.472;11.214;2024-03-08T07:24:37;1.60;99.90
25248;DHT22;13191;47.472;11.214;2024-03-08T07:27:35;1.60;99.90
25248;DHT22;13191;47.472;11.214;2024-03-08T07:30:02;1.60;99.90
25248;DHT22;13191;47.472;11.214;2024-03-08T07:32:28;1.60;99.90
25248;DHT22;13191;47.472;11.214;2024-03-08T07:34:55;1.70;99.90
25248;DHT22;13191;47.472;11.214;2024-03-08T07:37:21;1.80;99.90
25248;DHT22;13191;47.472;11.214;2024-03-08T07:39:47;1.80;99.90
25248;DHT22;13191;47.472;11.214;2024-03-08T07:42:12;1.80;99.90
25248;DHT22;13191;47.472;11.214;2024-03-08T07:44:38;1.90;99.90
25248;DHT22;13191;47.472;11.214;2024-03-08T07:47:04;1.90;99.90
25248;DHT22;13191;47.472;11.214;2024-03-08T07:49:30;2.00;99.90
25248;DHT22;13191;47.472;11.214;2024-03-08T07:51:56;2.10;99.90
25248;DHT22;13191;47.472;11.214;2024-03-08T07:54:23;2.10;99.90
25248;DHT22;13191;47.472;11.214;2024-03-08T07:56:48;2.20;99.90
25248;DHT22;13191;47.472;11.214;2024-03-08T07:59:16;2.30;99.90
25248;DHT22;13191;47.472;11.214;2024-03-08T08:01:41;2.40;99.90
25248;DHT22;13191;47.472;11.214;2024-03-08T08:04:07;2.50;99.90
25248;DHT22;13191;47.472;11.214;2024-03-08T08:06:40;2.50;99.90
25248;DHT22;13191;47.472;11.214;2024-03-08T08:09:09;2.60;99.90
25248;DHT22;13191;47.472;11.214;2024-03-08T08:11:41;2.70;99.90
25248;DHT22;13191;47.472;11.214;2024-03-08T08:14:10;2.80;99.90
25248;DHT22;13191;47.472;11.214;2024-03-08T08:16:36;2.90;99.90
25248;DHT22;13191;47.472;11.214;2024-03-08T08:19:03;2.90;99.90
25248;DHT22;13191;47.472;11.214;2024-03-08T08:21:36;3.00;99.90
25248;DHT22;13191;47.472;11.214;2024-03-08T08:24:04;3.10;99.90
25248;DHT22;13191;47.472;11.214;2024-03-08T08:26:30;3.20;99.90
25248;DHT22;13191;47.472;11.214;2024-03-08T08:28:56;3.30;99.90
25248;DHT22;13191;47.472;11.214;2024-03-08T08:31:21;3.40;99.90
25248;DHT22;13191;47.472;11.214;2024-03-08T08:33:47;3.50;99.90
25248;DHT22;13191;47.472;11.214;2024-03-08T08:36:14;3.50;99.90
25248;DHT22;13191;47.472;11.214;2024-03-08T08:38:40;3.60;99.90
25248;DHT22;13191;47.472;11.214;2024-03-08T08:41:09;3.70;99.90
25248;DHT22;13191;47.472;11.214;2024-03-08T08:43:35;3.70;99.90
25248;DHT22;13191;47.472;11.214;2024-03-08T08:46:00;3.80;99.90
25248;DHT22;13191;47.472;11.214;2024-03-08T08:48:26;3.90;99.90
25248;DHT22;13191;47.472;11.214;2024-03-08T08:50:53;4.00;99.90
25248;DHT22;13191;47.472;11.214;2024-03-08T08:53:19;4.00;99.90
25248;DHT22;13191;47.472;11.214;2024-03-08T08:55:44;4.10;99.90
25248;DHT22;13191;47.472;11.214;2024-03-08T08:58:11;4.20;99.90
25248;DHT22;13191;47.472;11.214;2024-03-08T09:00:36;4.20;99.90
25248;DHT22;13191;47.472;11.214;2024-03-08T09:03:02;4.30;99.90
25248;DHT22;13191;47.472;11.214;2024-03-08T09:05:28;4.40;99.90
25248;DHT22;13191;47.472;11.214;2024-03-08T09:07:54;4.50;99.90
25248;DHT22;13191;47.472;11.214;2024-03-08T09:10:20;4.60;99.90
25248;DHT22;13191;47.472;11.214;2024-03-08T09:12:46;4.70;99.90
25248;DHT22;13191;47.472;11.214;2024-03-08T09:15:12;4.70;99.90
25248;DHT22;13191;47.472;11.214;2024-03-08T09:17:39;4.80;99.90
25248;DHT22;13191;47.472;11.214;2024-03-08T09:20:09;4.90;99.90
25248;DHT22;13191;47.472;11.214;2024-03-08T09:22:40;4.90;99.90
25248;DHT22;13191;47.472;11.214;2024-03-08T09:25:09;5.00;99.90
25248;DHT22;13191;47.472;11.214;2024-03-08T09:27:35;5.10;99.90
25248;DHT22;13191;47.472;11.214;2024-03-08T09:30:00;5.10;99.90
25248;DHT22;13191;47.472;11.214;2024-03-08T09:32:26;5.20;99.90
25248;DHT22;13191;47.472;11.214;2024-03-08T09:34:52;5.20;99.90
25248;DHT22;13191;47.472;11.214;2024-03-08T09:37:17;5.20;99.90
25248;DHT22;13191;47.472;11.214;2024-03-08T09:39:44;5.30;99.90
25248;DHT22;13191;47.472;11.214;2024-03-08T09:42:10;5.30;99.90
25248;DHT22;13191;47.472;11.214;2024-03-08T09:44:36;5.40;99.90
25248;DHT22;13191;47.472;11.214;2024-03-08T09:47:02;5.40;99.90
25248;DHT22;13191;47.472;11.214;2024-03-08T09:49:28;5.40;99.90
25248;DHT22;13191;47.472;11.214;2024-03-08T09:51:54;5.40;99.90
25248;DHT22;13191;47.472;11.214;2024-03-08T09:54:21;5.50;99.90
25248;DHT22;13191;47.472;11.214;2024-03-08T09:56:48;5.50;99.90
25248;DHT22;13191;47.472;11.214;2024-03-08T09:59:15;5.60;99.90
25248;DHT22;13191;47.472;11.214;2024-03-08T10:01:59;5.60;99.90
25248;DHT22;13191;47.472;11.214;2024-03-08T10:04:25;5.70;99.90
25248;DHT22;13191;47.472;11.214;2024-03-08T10:06:57;5.70;99.90
25248;DHT22;13191;47.472;11.214;2024-03-08T10:09:24;5.80;99.90
25248;DHT22;13191;47.472;11.214;2024-03-08T10:11:58;5.90;99.90
25248;DHT22;13191;47.472;11.214;2024-03-08T10:14:27;5.90;99.90
25248;DHT22;13191;47.472;11.214;2024-03-08T10:16:53;6.00;99.90
25248;DHT22;13191;47.472;11.214;2024-03-08T10:19:20;6.00;99.90
25248;DHT22;13191;47.472;11.214;2024-03-08T10:21:52;6.10;99.90
25248;DHT22;13191;47.472;11.214;2024-03-08T10:24:19;6.10;99.90
25248;DHT22;13191;47.472;11.214;2024-03-08T10:26:44;6.10;99.90
25248;DHT22;13191;47.472;11.214;2024-03-08T10:29:11;6.20;99.90
25248;DHT22;13191;47.472;11.214;2024-03-08T10:31:44;6.20;99.90
25248;DHT22;13191;47.472;11.214;2024-03-08T10:34:10;6.30;99.90
25248;DHT22;13191;47.472;11.214;2024-03-08T10:36:36;6.30;99.90
25248;DHT22;13191;47.472;11.214;2024-03-08T10:39:22;6.40;99.90
25248;DHT22;13191;47.472;11.214;2024-03-08T10:41:57;6.50;99.90
25248;DHT22;13191;47.472;11.214;2024-03-08T10:50:16;6.70;99.90
25248;DHT22;13191;47.472;11.214;2024-03-08T10:52:50;6.80;99.90
25248;DHT22;13191;47.472;11.214;2024-03-08T10:55:17;6.80;99.90
25248;DHT22;13191;47.472;11.214;2024-03-08T10:57:44;6.90;99.90
25248;DHT22;13191;47.472;11.214;2024-03-08T11:00:12;7.00;99.90
25248;DHT22;13191;47.472;11.214;2024-03-08T11:02:38;7.10;99.90
25248;DHT22;13191;47.472;11.214;2024-03-08T11:05:04;7.10;99.90
25248;DHT22;13191;47.472;11.214;2024-03-08T11:07:34;7.20;99.90
25248;DHT22;13191;47.472;11.214;2024-03-08T11:10:03;7.20;99.90
25248;DHT22;13191;47.472;11.214;2024-03-08T11:12:37;7.20;99.90
25248;DHT22;13191;47.472;11.214;2024-03-08T11:15:10;7.30;99.90
25248;DHT22;13191;47.472;11.214;2024-03-08T11:20:17;7.50;99.90
25248;DHT22;13191;47.472;11.214;2024-03-08T11:23:06;7.50;99.90
25248;DHT22;13191;47.472;11.214;2024-03-08T11:25:34;7.60;99.90
25248;DHT22;13191;47.472;11.214;2024-03-08T11:28:08;7.70;99.90
25248;DHT22;13191;47.472;11.214;2024-03-08T11:30:36;7.70;99.90
25248;DHT22;13191;47.472;11.214;2024-03-08T11:33:03;7.80;99.90
25248;DHT22;13191;47.472;11.214;2024-03-08T11:35:29;7.90;99.90
25248;DHT22;13191;47.472;11.214;2024-03-08T11:37:58;7.90;99.90
25248;DHT22;13191;47.472;11.214;2024-03-08T11:40:26;8.00;99.90
25248;DHT22;13191;47.472;11.214;2024-03-08T11:42:52;8.00;99.90
25248;DHT22;13191;47.472;11.214;2024-03-08T11:45:17;8.10;99.90
25248;DHT22;13191;47.472;11.214;2024-03-08T11:47:44;8.10;99.90
25248;DHT22;13191;47.472;11.214;2024-03-08T11:50:12;8.20;99.90
25248;DHT22;13191;47.472;11.214;2024-03-08T11:52:37;8.30;99.90
25248;DHT22;13191;47.472;11.214;2024-03-08T11:55:03;8.40;99.90
25248;DHT22;13191;47.472;11.214;2024-03-08T11:57:31;8.50;99.90
25248;DHT22;13191;47.472;11.214;2024-03-08T11:59:58;8.60;99.90
25248;DHT22;13191;47.472;11.214;2024-03-08T12:02:24;8.60;99.90
25248;DHT22;13191;47.472;11.214;2024-03-08T12:04:57;8.70;99.90
25248;DHT22;13191;47.472;11.214;2024-03-08T12:07:25;8.70;99.90
25248;DHT22;13191;47.472;11.214;2024-03-08T12:10:19;8.80;99.90
25248;DHT22;13191;47.472;11.214;2024-03-08T12:12:48;8.90;99.90
25248;DHT22;13191;47.472;11.214;2024-03-08T12:15:22;8.90;99.90
25248;DHT22;13191;47.472;11.214;2024-03-08T12:17:50;9.00;99.90
25248;DHT22;13191;47.472;11.214;2024-03-08T12:20:28;9.10;99.90
25248;DHT22;13191;47.472;11.214;2024-03-08T12:22:57;9.10;99.90
25248;DHT22;13191;47.472;11.214;2024-03-08T12:25:33;9.20;99.90
25248;DHT22;13191;47.472;11.214;2024-03-08T12:28:09;9.30;99.90
25248;DHT22;13191;47.472;11.214;2024-03-08T12:30:49;9.30;99.90
25248;DHT22;13191;47.472;11.214;2024-03-08T12:33:18;9.30;99.90
25248;DHT22;13191;47.472;11.214;2024-03-08T12:35:51;9.40;99.90
25248;DHT22;13191;47.472;11.214;2024-03-08T12:38:20;9.40;99.90
25248;DHT22;13191;47.472;11.214;2024-03-08T12:40:50;9.50;99.90
25248;DHT22;13191;47.472;11.214;2024-03-08T12:43:15;9.50;99.90
25248;DHT22;13191;47.472;11.214;2024-03-08T12:45:41;9.60;99.90
25248;DHT22;13191;47.472;11.214;2024-03-08T12:48:13;9.70;99.90
25248;DHT22;13191;47.472;11.214;2024-03-08T12:50:40;9.70;99.90
25248;DHT22;13191;47.472;11.214;2024-03-08T12:53:08;9.80;99.90
25248;DHT22;13191;47.472;11.214;2024-03-08T12:55:34;9.80;99.90
25248;DHT22;13191;47.472;11.214;2024-03-08T12:57:59;9.80;99.90
25248;DHT22;13191;47.472;11.214;2024-03-08T13:00:26;9.90;99.90
25248;DHT22;13191;47.472;11.214;2024-03-08T13:02:53;9.90;99.90
25248;DHT22;13191;47.472;11.214;2024-03-08T13:05:19;10.10;99.90
25248;DHT22;13191;47.472;11.214;2024-03-08T13:07:45;10.10;99.90
25248;DHT22;13191;47.472;11.214;2024-03-08T13:10:15;10.20;99.90
25248;DHT22;13191;47.472;11.214;2024-03-08T13:12:44;10.30;99.90
25248;DHT22;13191;47.472;11.214;2024-03-08T13:15:10;10.40;99.90
25248;DHT22;13191;47.472;11.214;2024-03-08T13:17:49;10.40;99.90
25248;DHT22;13191;47.472;11.214;2024-03-08T13:20:15;10.50;99.90
25248;DHT22;13191;47.472;11.214;2024-03-08T13:22:45;10.40;99.90
25248;DHT22;13191;47.472;11.214;2024-03-08T13:25:11;10.50;99.90
25248;DHT22;13191;47.472;11.214;2024-03-08T13:27:42;10.60;99.90
25248;DHT22;13191;47.472;11.214;2024-03-08T13:30:14;10.60;99.90
25248;DHT22;13191;47.472;11.214;2024-03-08T13:32:43;10.70;99.90
25248;DHT22;13191;47.472;11.214;2024-03-08T13:35:10;10.80;99.90
25248;DHT22;13191;47.472;11.214;2024-03-08T13:37:40;10.80;99.90
25248;DHT22;13191;47.472;11.214;2024-03-08T13:40:06;10.90;99.90
25248;DHT22;13191;47.472;11.214;2024-03-08T13:42:37;11.00;99.90
25248;DHT22;13191;47.472;11.214;2024-03-08T13:45:04;11.10;99.90
25248;DHT22;13191;47.472;11.214;2024-03-08T13:47:30;11.20;99.90
25248;DHT22;13191;47.472;11.214;2024-03-08T13:49:56;11.10;99.90
25248;DHT22;13191;47.472;11.214;2024-03-08T13:52:22;11.10;99.90
25248;DHT22;13191;47.472;11.214;2024-03-08T13:54:50;11.20;99.90
25248;DHT22;13191;47.472;11.214;2024-03-08T13:57:16;11.20;99.90
25248;DHT22;13191;47.472;11.214;2024-03-08T13:59:43;11.20;99.90
25248;DHT22;13191;47.472;11.214;2024-03-08T14:02:09;11.30;99.90
25248;DHT22;13191;47.472;11.214;2024-03-08T14:04:38;11.40;99.90
25248;DHT22;13191;47.472;11.214;2024-03-08T14:07:05;11.50;99.90
25248;DHT22;13191;47.472;11.214;2024-03-08T14:09:33;11.60;99.90
25248;DHT22;13191;47.472;11.214;2024-03-08T14:12:03;11.70;99.90
25248;DHT22;13191;47.472;11.214;2024-03-08T14:14:35;11.60;99.90
25248;DHT22;13191;47.472;11.214;2024-03-08T14:17:04;11.80;99.90
25248;DHT22;13191;47.472;11.214;2024-03-08T14:19:30;11.90;99.90
25248;DHT22;13191;47.472;11.214;2024-03-08T14:22:01;12.00;99.90
25248;DHT22;13191;47.472;11.214;2024-03-08T14:24:30;12.20;99.90
25248;DHT22;13191;47.472;11.214;2024-03-08T14:26:56;12.40;99.90
25248;DHT22;13191;47.472;11.214;2024-03-08T14:29:23;12.70;99.90
25248;DHT22;13191;47.472;11.214;2024-03-08T14:31:51;13.20;99.90
25248;DHT22;13191;47.472;11.214;2024-03-08T14:34:16;13.50;99.90
25248;DHT22;13191;47.472;11.214;2024-03-08T14:36:42;13.80;99.90
25248;DHT22;13191;47.472;11.214;2024-03-08T14:39:08;14.10;99.90
25248;DHT22;13191;47.472;11.214;2024-03-08T14:41:34;14.40;99.90
25248;DHT22;13191;47.472;11.214;2024-03-08T14:43:59;14.70;99.90
25248;DHT22;13191;47.472;11.214;2024-03-08T14:46:25;15.20;99.90
25248;DHT22;13191;47.472;11.214;2024-03-08T14:48:52;15.50;99.90
25248;DHT22;13191;47.472;11.214;2024-03-08T14:51:19;15.70;99.90
25248;DHT22;13191;47.472;11.214;2024-03-08T14:53:47;16.10;99.90
25248;DHT22;13191;47.472;11.214;2024-03-08T14:56:14;16.20;98.70
25248;DHT22;13191;47.472;11.214;2024-03-08T14:58:45;16.50;98.00
25248;DHT22;13191;47.472;11.214;2024-03-08T15:01:15;16.70;96.90
25248;DHT22;13191;47.472;11.214;2024-03-08T15:03:41;16.80;97.40
25248;DHT22;13191;47.472;11.214;2024-03-08T15:06:08;17.20;98.40
25248;DHT22;13191;47.472;11.214;2024-03-08T15:08:38;17.30;99.10
25248;DHT22;13191;47.472;11.214;2024-03-08T15:11:05;17.40;97.10
25248;DHT22;13191;47.472;11.214;2024-03-08T15:13:35;17.10;96.00
25248;DHT22;13191;47.472;11.214;2024-03-08T15:16:08;17.20;97.30
25248;DHT22;13191;47.472;11.214;2024-03-08T15:18:35;17.00;95.10
25248;DHT22;13191;47.472;11.214;2024-03-08T15:21:05;17.10;97.20
25248;DHT22;13191;47.472;11.214;2024-03-08T15:23:35;17.10;95.70
25248;DHT22;13191;47.472;11.214;2024-03-08T15:26:01;17.10;94.70
25248;DHT22;13191;47.472;11.214;2024-03-08T15:28:27;17.40;98.10
25248;DHT22;13191;47.472;11.214;2024-03-08T15:31:02;17.70;97.40
25248;DHT22;13191;47.472;11.214;2024-03-08T15:33:32;18.10;99.00
25248;DHT22;13191;47.472;11.214;2024-03-08T15:35:57;18.20;95.30